Time;durP1;ratioP1;P1;durP2;ratioP2;P2;SDS_P1;SDS_P2;PMS_P1;PMS_P2;Temp;Humidity;BMP_temperature;BMP_pressure;BME280_temperature;BME280_humidity;BME280_pressure;Samples;Min_cycle;Max_cycle;Signal;HPM_P1;HPM_P2
2023/10/26 00:01:26;;;;;;;11.23;9.80;;;10.70;99.90;;;;;;5115327;28;20473;-59
2023/10/26 00:03:53;;;;;;;11.20;10.10;;;10.60;99.90;;;;;;5114083;28;20452;-59
2023/10/26 00:06:21;;;;;;;12.63;9.83;;;10.60;99.90;;;;;;5115037;28;20532;-59
2023/10/26 00:08:48;;;;;;;12.03;10.67;;;10.60;99.90;;;;;;5114936;28;20480;-59
2023/10/26 00:11:14;;;;;;;13.30;10.60;;;10.60;99.90;;;;;;5114762;28;20445;-58
2023/10/26 00:13:40;;;;;;;10.17;9.20;;;10.60;99.90;;;;;;5114968;28;20437;-59
2023/10/26 00:16:07;;;;;;;14.47;10.60;;;10.60;99.90;;;;;;5114676;28;20952;-59
2023/10/26 00:18:34;;;;;;;11.43;10.30;;;10.60;99.90;;;;;;5114790;28;20529;-59
2023/10/26 00:21:01;;;;;;;10.80;9.70;;;10.60;99.90;;;;;;5114708;28;20529;-59
2023/10/26 00:23:28;;;;;;;11.20;9.87;;;10.60;99.90;;;;;;5114521;28;20535;-59
2023/10/26 00:25:55;;;;;;;11.63;10.53;;;10.60;99.90;;;;;;5114479;28;20445;-59
2023/10/26 00:28:21;;;;;;;11.83;10.13;;;10.60;99.90;;;;;;5114655;28;20477;-59
2023/10/26 00:30:48;;;;;;;10.77;9.60;;;10.60;99.90;;;;;;5114368;28;20925;-59
2023/10/26 00:33:14;;;;;;;13.03;10.10;;;10.60;99.90;;;;;;5114557;28;20804;-59
2023/10/26 00:35:41;;;;;;;12.83;10.17;;;10.60;99.90;;;;;;5114419;28;20446;-59
2023/10/26 00:38:07;;;;;;;11.60;10.37;;;10.60;99.90;;;;;;5114325;28;20520;-59
2023/10/26 00:40:35;;;;;;;12.73;10.17;;;10.50;99.90;;;;;;5114526;28;20437;-59
2023/10/26 00:43:02;;;;;;;11.73;10.53;;;10.50;99.90;;;;;;5114347;28;20481;-59
2023/10/26 00:45:31;;;;;;;12.97;11.67;;;10.50;99.90;;;;;;5114237;28;20518;-60
2023/10/26 00:47:58;;;;;;;12.83;11.27;;;10.50;99.90;;;;;;5114254;28;20445;-59
2023/10/26 00:50:26;;;;;;;11.67;10.67;;;10.60;99.90;;;;;;5114114;28;20933;-59
2023/10/26 00:52:53;;;;;;;13.30;11.77;;;10.60;99.90;;;;;;5113979;28;20450;-59
2023/10/26 00:55:20;;;;;;;12.30;11.10;;;10.60;99.90;;;;;;5114423;28;20438;-59
2023/10/26 00:57:48;;;;;;;14.17;11.23;;;10.60;99.90;;;;;;5114124;28;20449;-59
2023/10/26 01:00:15;;;;;;;14.57;12.93;;;10.50;99.90;;;;;;5114313;28;20537;-59
2023/10/26 01:02:41;;;;;;;12.77;11.53;;;10.50;99.90;;;;;;5113861;28;20568;-59
2023/10/26 01:05:08;;;;;;;13.33;11.90;;;10.50;99.90;;;;;;5113871;28;20446;-59
2023/10/26 01:07:35;;;;;;;13.37;11.97;;;10.50;99.90;;;;;;5113795;28;20434;-59
2023/10/26 01:10:01;;;;;;;13.47;12.17;;;10.50;99.90;;;;;;5113960;28;20443;-59
2023/10/26 01:12:28;;;;;;;15.00;12.50;;;10.50;99.90;;;;;;5113854;28;20794;-59
2023/10/26 01:14:56;;;;;;;13.17;11.70;;;10.50;99.90;;;;;;5113691;28;20828;-59
2023/10/26 01:17:24;;;;;;;11.73;10.63;;;10.40;99.90;;;;;;5113635;28;20449;-59
2023/10/26 01:19:50;;;;;;;13.40;12.00;;;10.40;99.90;;;;;;5113581;28;20438;-59
2023/10/26 01:22:18;;;;;;;14.17;12.67;;;10.40;99.90;;;;;;5113491;28;20497;-59
2023/10/26 01:24:45;;;;;;;12.97;11.67;;;10.40;99.90;;;;;;5113680;28;20445;-59
2023/10/26 01:27:11;;;;;;;13.40;12.03;;;10.40;99.90;;;;;;5113689;28;20872;-59
2023/10/26 01:29:38;;;;;;;13.97;11.80;;;10.40;99.90;;;;;;5113557;28;20881;-59
2023/10/26 01:32:05;;;;;;;13.10;11.80;;;10.40;99.90;;;;;;5113566;28;20528;-59
2023/10/26 01:34:32;;;;;;;14.40;13.00;;;10.40;99.90;;;;;;5113352;28;20433;-59
2023/10/26 01:36:58;;;;;;;14.07;12.77;;;10.40;99.90;;;;;;5113724;28;21106;-59
2023/10/26 01:39:26;;;;;;;12.13;10.90;;;10.40;99.90;;;;;;5113566;28;20537;-59
2023/10/26 01:41:52;;;;;;;12.87;11.50;;;10.40;99.90;;;;;;5113401;28;20475;-59
2023/10/26 01:44:19;;;;;;;13.40;12.10;;;10.40;99.90;;;;;;5113273;28;20837;-58
2023/10/26 01:46:45;;;;;;;13.63;11.27;;;10.40;99.90;;;;;;5113397;28;20449;-58
2023/10/26 01:49:12;;;;;;;12.30;11.10;;;10.50;99.90;;;;;;5113287;28;20528;-59
2023/10/26 01:51:38;;;;;;;12.70;11.50;;;10.50;99.90;;;;;;5113478;28;20536;-58
2023/10/26 01:54:05;;;;;;;13.63;12.27;;;10.40;99.90;;;;;;5113408;28;20528;-59
2023/10/26 01:56:33;;;;;;;15.77;11.67;;;10.50;99.90;;;;;;5113237;28;21028;-58
2023/10/26 01:58:59;;;;;;;13.77;12.47;;;10.50;99.90;;;;;;5113299;28;20533;-59
2023/10/26 02:01:26;;;;;;;13.20;11.97;;;10.50;99.90;;;;;;5113274;28;20536;-59
2023/10/26 02:03:52;;;;;;;15.00;11.23;;;10.60;99.90;;;;;;5113292;28;20481;-58
2023/10/26 02:06:19;;;;;;;14.53;12.13;;;10.60;99.90;;;;;;5113378;28;20532;-59
2023/10/26 02:08:45;;;;;;;13.30;11.90;;;10.60;99.90;;;;;;5113318;28;20591;-59
2023/10/26 02:11:12;;;;;;;12.70;11.40;;;10.60;99.90;;;;;;5113204;28;20448;-58
2023/10/26 02:13:40;;;;;;;12.37;11.27;;;10.60;99.90;;;;;;5113378;28;20456;-59
2023/10/26 02:16:07;;;;;;;12.67;11.53;;;10.60;99.90;;;;;;5112821;28;20959;-59
2023/10/26 02:18:33;;;;;;;13.87;12.43;;;10.60;99.90;;;;;;5113209;28;20793;-59
2023/10/26 02:21:00;;;;;;;15.60;12.43;;;10.50;99.90;;;;;;5113275;28;20477;-59
2023/10/26 02:23:27;;;;;;;14.70;12.63;;;10.50;99.90;;;;;;5113016;28;20482;-59
2023/10/26 02:25:53;;;;;;;13.23;12.03;;;10.60;99.90;;;;;;5114059;28;20480;-59
2023/10/26 02:28:20;;;;;;;12.90;11.70;;;10.60;99.90;;;;;;5116851;28;20498;-59
2023/10/26 02:30:48;;;;;;;14.90;13.33;;;10.60;99.90;;;;;;5117194;28;20929;-59
2023/10/26 02:33:14;;;;;;;14.97;13.40;;;10.50;99.90;;;;;;5116973;28;20444;-58
2023/10/26 02:35:41;;;;;;;14.50;13.10;;;10.50;99.90;;;;;;5116880;28;20444;-58
2023/10/26 02:38:07;;;;;;;14.17;12.13;;;10.50;99.90;;;;;;5116847;28;20474;-59
2023/10/26 02:40:36;;;;;;;16.33;13.67;;;10.50;99.90;;;;;;5116680;28;20441;-59
2023/10/26 02:43:03;;;;;;;13.90;12.60;;;10.50;99.90;;;;;;5116494;28;20568;-59
2023/10/26 02:45:30;;;;;;;14.50;12.20;;;10.60;99.90;;;;;;5116576;28;20470;-59
2023/10/26 02:47:58;;;;;;;13.10;11.70;;;10.60;99.90;;;;;;5116674;28;20532;-58
2023/10/26 02:50:24;;;;;;;14.43;12.97;;;10.50;99.90;;;;;;5116589;28;20441;-59
2023/10/26 02:52:51;;;;;;;14.03;12.60;;;10.60;99.90;;;;;;5116380;28;20452;-58
2023/10/26 02:55:17;;;;;;;13.43;12.03;;;10.60;99.90;;;;;;5116417;28;20442;-59
2023/10/26 02:57:44;;;;;;;14.20;12.70;;;10.60;99.90;;;;;;5116268;28;20528;-59
2023/10/26 03:00:14;;;;;;;18.13;13.60;;;10.50;99.90;;;;;;5116181;28;20536;-59
2023/10/26 03:02:40;;;;;;;15.50;13.80;;;10.40;99.90;;;;;;5116431;28;20473;-59
2023/10/26 03:05:09;;;;;;;16.00;13.30;;;10.50;99.90;;;;;;5116190;28;20537;-59
2023/10/26 03:07:36;;;;;;;16.10;14.50;;;10.50;99.90;;;;;;5116232;28;20801;-59
2023/10/26 03:10:02;;;;;;;13.70;12.30;;;10.60;99.90;;;;;;5116073;28;20449;-59
2023/10/26 03:12:29;;;;;;;16.33;14.73;;;10.50;99.90;;;;;;5115949;28;20934;-59
2023/10/26 03:14:55;;;;;;;15.80;14.20;;;10.50;99.90;;;;;;5116208;28;20568;-59
2023/10/26 03:17:21;;;;;;;14.97;13.47;;;10.50;99.90;;;;;;5116054;28;20448;-59
2023/10/26 03:19:48;;;;;;;13.50;12.07;;;10.60;99.90;;;;;;5115957;28;20448;-59
2023/10/26 03:22:16;;;;;;;18.23;12.60;;;10.60;99.90;;;;;;5115796;28;20441;-59
2023/10/26 03:24:43;;;;;;;14.80;13.30;;;10.60;99.90;;;;;;5115764;28;20445;-59
2023/10/26 03:27:09;;;;;;;14.20;12.47;;;10.50;99.90;;;;;;5115612;28;20446;-59
2023/10/26 03:29:36;;;;;;;14.50;13.10;;;10.50;99.90;;;;;;5115878;28;20476;-59
2023/10/26 03:32:03;;;;;;;15.03;13.43;;;10.50;99.90;;;;;;5115526;28;20941;-59
2023/10/26 03:34:31;;;;;;;13.30;11.87;;;10.50;99.90;;;;;;5115484;28;20446;-59
2023/10/26 03:36:58;;;;;;;12.80;11.57;;;10.60;99.90;;;;;;5114764;28;20529;-59
2023/10/26 03:39:25;;;;;;;12.80;11.50;;;10.70;99.90;;;;;;5115149;28;20524;-59
2023/10/26 03:41:52;;;;;;;13.73;11.87;;;10.60;99.90;;;;;;5115355;28;20448;-59
2023/10/26 03:44:18;;;;;;;12.93;11.70;;;10.60;99.90;;;;;;5115359;28;20489;-59
2023/10/26 03:46:52;;;;;;;12.97;11.30;;;10.70;99.90;;;;;;5115852;28;20536;-65
2023/10/26 03:49:18;;;;;;;13.60;12.13;;;10.70;99.90;;;;;;5115608;28;20495;-58
2023/10/26 03:51:45;;;;;;;12.30;11.10;;;10.60;99.90;;;;;;5115371;28;20879;-59
2023/10/26 03:54:11;;;;;;;12.57;11.27;;;10.60;99.90;;;;;;5115105;28;20446;-59
2023/10/26 03:56:39;;;;;;;13.73;10.97;;;10.60;99.90;;;;;;5115353;28;20449;-58
2023/10/26 03:59:06;;;;;;;11.60;10.40;;;10.70;99.90;;;;;;5115282;28;20538;-59
2023/10/26 04:01:32;;;;;;;12.07;9.67;;;10.70;99.90;;;;;;5115132;28;20446;-58
2023/10/26 04:03:58;;;;;;;11.33;9.83;;;10.70;99.90;;;;;;5115022;28;20481;-58
2023/10/26 04:06:25;;;;;;;11.40;10.27;;;10.60;99.90;;;;;;5114877;28;20529;-58
2023/10/26 04:08:56;;;;;;;11.93;10.67;;;10.60;99.90;;;;;;5114758;28;20964;-59
2023/10/26 04:11:22;;;;;;;10.97;9.90;;;10.60;99.90;;;;;;5115116;28;20473;-59
2023/10/26 04:13:50;;;;;;;11.03;9.93;;;10.70;99.90;;;;;;5115000;28;20533;-59
2023/10/26 04:16:16;;;;;;;11.30;10.10;;;10.70;99.90;;;;;;5114986;28;20883;-59
2023/10/26 04:18:44;;;;;;;9.80;8.77;;;10.70;99.90;;;;;;5114809;28;20452;-58
2023/10/26 04:21:10;;;;;;;10.40;9.40;;;10.60;99.90;;;;;;5114538;28;21017;-59
2023/10/26 04:23:36;;;;;;;10.10;9.10;;;10.60;99.90;;;;;;5114452;28;20832;-59
2023/10/26 04:26:04;;;;;;;9.90;8.90;;;10.60;99.90;;;;;;5114667;28;20532;-59
2023/10/26 04:28:31;;;;;;;9.60;8.70;;;10.60;99.90;;;;;;5114548;28;20442;-59
2023/10/26 04:30:59;;;;;;;10.70;9.70;;;10.60;99.90;;;;;;5114519;28;20442;-59
2023/10/26 04:33:25;;;;;;;9.93;8.93;;;10.70;99.90;;;;;;5114398;28;20464;-59
2023/10/26 04:35:52;;;;;;;9.23;8.43;;;10.70;99.90;;;;;;5114299;28;20477;-59
2023/10/26 04:38:19;;;;;;;9.47;8.53;;;10.60;99.90;;;;;;5114247;28;21061;-59
2023/10/26 04:40:45;;;;;;;10.60;9.60;;;10.60;99.90;;;;;;5114414;28;20887;-59
2023/10/26 04:43:12;;;;;;;11.30;9.57;;;10.60;99.90;;;;;;5114149;28;20461;-61
2023/10/26 04:45:38;;;;;;;10.03;9.13;;;10.60;99.90;;;;;;5114054;28;20473;-59
2023/10/26 04:48:06;;;;;;;10.10;9.10;;;10.70;99.90;;;;;;5114000;28;20537;-59
2023/10/26 04:50:33;;;;;;;9.87;8.97;;;10.70;99.90;;;;;;5113958;28;21017;-59
2023/10/26 04:52:59;;;;;;;9.63;8.83;;;10.70;99.90;;;;;;5114276;28;21043;-59
2023/10/26 04:55:30;;;;;;;11.40;9.07;;;10.70;99.90;;;;;;5114047;28;20491;-59
2023/10/26 04:57:56;;;;;;;9.13;8.20;;;10.70;99.90;;;;;;5114094;28;20786;-60
2023/10/26 05:00:23;;;;;;;10.83;8.30;;;10.70;99.90;;;;;;5113884;28;20434;-59
2023/10/26 05:02:49;;;;;;;9.13;8.20;;;10.70;99.90;;;;;;5113686;28;20537;-59
2023/10/26 05:05:17;;;;;;;9.27;8.37;;;10.80;99.90;;;;;;5113797;28;20441;-60
2023/10/26 05:07:44;;;;;;;9.50;8.70;;;10.80;99.90;;;;;;5113944;28;20540;-60
2023/10/26 05:10:11;;;;;;;9.30;8.50;;;10.80;99.90;;;;;;5114065;28;20507;-59
2023/10/26 05:12:37;;;;;;;9.17;8.37;;;10.80;99.90;;;;;;5113832;28;20448;-60
2023/10/26 05:15:05;;;;;;;10.07;9.07;;;10.80;99.90;;;;;;5113708;28;20540;-59
2023/10/26 05:17:31;;;;;;;10.00;9.00;;;10.80;99.90;;;;;;5113474;28;20452;-59
2023/10/26 05:19:59;;;;;;;9.33;8.43;;;10.80;99.90;;;;;;5113963;28;20720;-59
2023/10/26 05:22:27;;;;;;;9.23;8.47;;;10.70;99.90;;;;;;5113690;28;20493;-59
2023/10/26 05:24:54;;;;;;;9.70;8.70;;;10.70;99.90;;;;;;5113447;28;20482;-59
2023/10/26 05:27:20;;;;;;;10.87;9.77;;;10.70;99.90;;;;;;5113539;28;20448;-59
2023/10/26 05:29:47;;;;;;;9.33;8.43;;;10.70;99.90;;;;;;5113499;28;20507;-59
2023/10/26 05:32:13;;;;;;;11.83;9.60;;;10.70;99.90;;;;;;5113348;28;20481;-59
2023/10/26 05:34:40;;;;;;;10.00;9.17;;;10.80;99.90;;;;;;5113595;28;20865;-59
2023/10/26 05:37:06;;;;;;;9.43;8.53;;;10.80;99.90;;;;;;5113517;28;20445;-59
2023/10/26 05:39:34;;;;;;;9.63;8.63;;;10.70;99.90;;;;;;5113451;28;20437;-59
2023/10/26 05:42:03;;;;;;;11.17;10.17;;;10.70;99.90;;;;;;5113362;28;20532;-59
2023/10/26 05:44:31;;;;;;;10.30;9.30;;;10.60;99.90;;;;;;5113088;28;20832;-58
2023/10/26 05:46:59;;;;;;;9.80;8.90;;;10.70;99.90;;;;;;5113499;28;20502;-59
2023/10/26 05:49:26;;;;;;;10.17;9.17;;;10.70;99.90;;;;;;5113669;28;20446;-58
2023/10/26 05:51:52;;;;;;;11.17;8.97;;;10.70;99.90;;;;;;5113324;28;20522;-58
2023/10/26 05:54:19;;;;;;;12.07;9.20;;;10.70;99.90;;;;;;5113253;28;20467;-59
2023/10/26 05:56:47;;;;;;;10.50;9.40;;;10.70;99.90;;;;;;5113112;28;20445;-59
2023/10/26 05:59:13;;;;;;;10.50;9.40;;;10.80;99.90;;;;;;5113037;28;20924;-59
2023/10/26 06:01:39;;;;;;;8.83;7.90;;;10.70;99.90;;;;;;5115681;28;20438;-59
2023/10/26 06:04:06;;;;;;;9.90;8.90;;;10.70;99.90;;;;;;5117277;28;20571;-59
2023/10/26 06:06:33;;;;;;;10.20;9.20;;;10.70;99.90;;;;;;5117291;28;20532;-59
2023/10/26 06:08:59;;;;;;;9.73;8.83;;;10.70;99.90;;;;;;5117212;28;20448;-59
2023/10/26 06:11:26;;;;;;;11.50;10.40;;;10.70;99.90;;;;;;5117107;28;20446;-59
2023/10/26 06:13:54;;;;;;;12.37;9.37;;;10.80;99.90;;;;;;5117008;28;20453;-59
2023/10/26 06:16:20;;;;;;;13.10;11.33;;;10.80;99.90;;;;;;5117284;28;21023;-59
2023/10/26 06:18:47;;;;;;;10.77;9.77;;;10.80;99.90;;;;;;5117120;28;20872;-58
2023/10/26 06:21:13;;;;;;;11.83;10.63;;;10.90;99.90;;;;;;5117065;28;20443;-59
2023/10/26 06:23:40;;;;;;;12.53;11.03;;;10.80;99.90;;;;;;5116917;28;20465;-59
2023/10/26 06:26:06;;;;;;;12.73;11.40;;;10.80;99.90;;;;;;5116721;28;20483;-59
2023/10/26 06:28:33;;;;;;;14.50;11.33;;;10.70;99.90;;;;;;5117110;28;20502;-59
2023/10/26 06:31:10;;;;;;;12.67;11.37;;;10.70;99.90;;;;;;5116928;28;20445;-59
2023/10/26 06:33:37;;;;;;;11.93;10.73;;;10.70;99.90;;;;;;5116887;28;20510;-59
2023/10/26 06:36:04;;;;;;;13.27;11.87;;;10.60;99.90;;;;;;5116642;28;21020;-59
2023/10/26 06:38:30;;;;;;;12.60;10.80;;;10.70;99.90;;;;;;5116548;28;20877;-59
2023/10/26 06:40:57;;;;;;;13.63;10.73;;;10.70;99.90;;;;;;5116378;28;20549;-59
2023/10/26 06:43:24;;;;;;;13.40;12.00;;;10.70;99.90;;;;;;5116645;28;20495;-59
2023/10/26 06:45:51;;;;;;;12.90;11.33;;;10.60;99.90;;;;;;5116243;28;20473;-59
2023/10/26 06:48:20;;;;;;;10.67;9.20;;;10.60;99.90;;;;;;5116550;28;20451;-59
2023/10/26 06:50:46;;;;;;;12.00;10.80;;;10.60;99.90;;;;;;5116478;28;20540;-59
2023/10/26 06:53:13;;;;;;;11.50;10.20;;;10.60;99.90;;;;;;5116322;28;20874;-60
2023/10/26 06:55:41;;;;;;;12.40;11.10;;;10.70;99.90;;;;;;5116417;28;20438;-59
2023/10/26 06:58:07;;;;;;;11.83;10.23;;;10.60;99.90;;;;;;5116378;28;20490;-59
2023/10/26 07:00:35;;;;;;;11.27;9.03;;;10.70;99.90;;;;;;5116252;28;20524;-59
2023/10/26 07:03:02;;;;;;;10.13;9.13;;;10.70;99.90;;;;;;5116652;28;20946;-59
2023/10/26 07:05:30;;;;;;;11.30;9.23;;;10.70;99.90;;;;;;5115745;28;20481;-60
2023/10/26 07:07:59;;;;;;;10.13;9.07;;;10.70;99.90;;;;;;5115891;28;20480;-59
2023/10/26 07:10:26;;;;;;;9.10;8.30;;;10.70;99.90;;;;;;5116047;27;20438;-60
2023/10/26 07:12:52;;;;;;;8.83;8.00;;;10.70;99.90;;;;;;5115798;28;20533;-59
2023/10/26 07:15:19;;;;;;;9.00;8.00;;;10.70;99.90;;;;;;5115697;28;20445;-62
2023/10/26 07:17:45;;;;;;;9.73;8.90;;;10.70;99.90;;;;;;5115883;28;20796;-63
2023/10/26 07:20:13;;;;;;;8.20;7.30;;;10.70;99.90;;;;;;5115671;28;20865;-63
2023/10/26 07:22:42;;;;;;;8.17;7.37;;;10.70;99.90;;;;;;5115822;28;20442;-62
2023/10/26 07:25:09;;;;;;;9.73;8.83;;;10.80;99.90;;;;;;5115346;28;20992;-62
2023/10/26 07:27:37;;;;;;;8.43;7.70;;;10.80;99.90;;;;;;5115711;28;20528;-58
2023/10/26 07:30:04;;;;;;;10.17;9.20;;;10.80;99.90;;;;;;5115418;28;20947;-63
2023/10/26 07:32:31;;;;;;;12.33;8.70;;;10.80;99.90;;;;;;5115475;28;20481;-61
2023/10/26 07:34:58;;;;;;;9.10;8.20;;;10.90;99.90;;;;;;5115382;28;20957;-63
2023/10/26 07:37:25;;;;;;;12.83;10.40;;;10.90;99.90;;;;;;5115480;28;20510;-62
2023/10/26 07:39:52;;;;;;;10.13;9.13;;;10.90;99.90;;;;;;5115254;28;21004;-60
2023/10/26 07:42:19;;;;;;;10.23;9.20;;;10.90;99.90;;;;;;5115476;28;20537;-60
2023/10/26 07:44:45;;;;;;;10.70;9.60;;;10.80;99.90;;;;;;5115098;28;20573;-60
2023/10/26 07:47:12;;;;;;;11.53;10.33;;;10.90;99.90;;;;;;5115084;28;20533;-62
2023/10/26 07:49:39;;;;;;;11.67;9.80;;;10.90;99.90;;;;;;5114905;28;20890;-61
2023/10/26 07:52:06;;;;;;;13.37;10.47;;;11.00;99.90;;;;;;5115619;28;20485;-58
2023/10/26 07:54:32;;;;;;;11.33;10.23;;;11.00;99.90;;;;;;5115215;28;20870;-58
2023/10/26 07:57:00;;;;;;;15.93;11.90;;;11.10;99.90;;;;;;5114959;28;20495;-58
2023/10/26 07:59:27;;;;;;;13.10;11.47;;;11.10;99.90;;;;;;5114975;28;20520;-59
2023/10/26 08:01:53;;;;;;;14.40;12.90;;;11.20;99.90;;;;;;5114803;28;20441;-61
2023/10/26 08:04:20;;;;;;;13.80;12.40;;;11.30;99.90;;;;;;5114981;28;20504;-58
2023/10/26 08:06:47;;;;;;;14.67;13.13;;;11.40;99.90;;;;;;5114912;28;20445;-60
2023/10/26 08:09:13;;;;;;;15.60;13.53;;;11.40;99.90;;;;;;5114821;28;20438;-60
2023/10/26 08:11:40;;;;;;;13.70;12.30;;;11.40;99.90;;;;;;5114822;28;20445;-60
2023/10/26 08:14:08;;;;;;;19.23;13.70;;;11.40;99.90;;;;;;5114678;28;20445;-62
2023/10/26 08:16:34;;;;;;;16.70;14.40;;;11.30;99.90;;;;;;5114261;28;20441;-55
2023/10/26 08:19:01;;;;;;;15.97;14.37;;;11.30;99.90;;;;;;5114848;28;20517;-60
2023/10/26 08:21:27;;;;;;;14.43;12.93;;;11.10;99.90;;;;;;5114532;28;20845;-60
2023/10/26 08:23:54;;;;;;;13.60;12.20;;;11.20;99.90;;;;;;5113793;28;20552;-58
2023/10/26 08:26:20;;;;;;;12.90;11.60;;;11.20;99.90;;;;;;5114579;28;20447;-58
2023/10/26 08:28:47;;;;;;;13.23;11.90;;;11.20;99.90;;;;;;5114452;28;20484;-58
2023/10/26 08:31:15;;;;;;;13.70;12.27;;;11.20;99.90;;;;;;5114195;28;21006;-58
2023/10/26 08:33:41;;;;;;;13.63;12.20;;;11.10;99.90;;;;;;5114248;28;20945;-61
2023/10/26 08:36:08;;;;;;;12.77;11.53;;;11.20;99.90;;;;;;5114448;28;20517;-59
2023/10/26 08:38:35;;;;;;;13.30;12.00;;;11.20;99.90;;;;;;5114317;28;20521;-59
2023/10/26 08:41:02;;;;;;;13.67;12.27;;;11.30;99.90;;;;;;5114157;28;20475;-59
2023/10/26 08:43:29;;;;;;;14.40;12.67;;;11.30;99.90;;;;;;5113978;28;20441;-60
2023/10/26 08:45:59;;;;;;;13.30;11.83;;;11.30;99.90;;;;;;5113940;28;20481;-60
2023/10/26 08:48:30;;;;;;;12.90;11.50;;;11.30;99.90;;;;;;5114026;28;20491;-58
2023/10/26 08:50:57;;;;;;;13.10;11.80;;;11.30;99.90;;;;;;5114412;28;20449;-60
2023/10/26 08:53:23;;;;;;;12.50;11.30;;;11.30;99.90;;;;;;5113908;28;20978;-60
2023/10/26 08:55:54;;;;;;;12.00;10.80;;;11.30;99.90;;;;;;5113939;28;20449;-60
2023/10/26 08:58:21;;;;;;;13.80;10.60;;;11.50;99.90;;;;;;5113457;28;20469;-59
2023/10/26 09:00:47;;;;;;;12.90;11.07;;;11.50;99.90;;;;;;5113817;28;20869;-60
2023/10/26 09:03:14;;;;;;;10.43;9.40;;;11.50;99.90;;;;;;5114101;28;20442;-59
2023/10/26 09:05:54;;;;;;;10.40;9.40;;;11.60;99.90;;;;;;5113877;28;20574;-61
2023/10/26 09:08:22;;;;;;;10.00;9.00;;;11.70;99.90;;;;;;5113542;28;20544;-61
2023/10/26 09:10:49;;;;;;;9.10;8.30;;;11.60;99.90;;;;;;5113489;28;20441;-62
2023/10/26 09:13:25;;;;;;;9.23;8.47;;;11.60;99.90;;;;;;5113778;28;20506;-63
2023/10/26 09:15:54;;;;;;;10.73;9.63;;;11.60;99.90;;;;;;5113564;28;20441;-62
2023/10/26 09:18:21;;;;;;;11.80;9.60;;;11.70;99.90;;;;;;5113604;28;20492;-62
2023/10/26 09:21:04;;;;;;;9.00;8.10;;;11.70;99.90;;;;;;5113512;28;20849;-62
2023/10/26 09:23:31;;;;;;;8.40;7.60;;;11.70;99.90;;;;;;5113111;28;20437;-61
2023/10/26 09:25:58;;;;;;;8.47;7.70;;;11.70;99.90;;;;;;5113425;28;20487;-60
2023/10/26 09:28:25;;;;;;;8.80;8.00;;;11.80;99.90;;;;;;5113533;28;20880;-60
2023/10/26 09:30:57;;;;;;;9.10;8.20;;;11.90;99.90;;;;;;5113324;28;20910;-59
2023/10/26 09:33:24;;;;;;;8.83;7.93;;;12.00;99.90;;;;;;5113472;28;20445;-60
2023/10/26 09:35:52;;;;;;;7.60;6.90;;;12.00;99.90;;;;;;5113199;28;20477;-61
2023/10/26 09:38:34;;;;;;;8.03;7.30;;;12.00;99.90;;;;;;5113513;28;20502;-60
2023/10/26 09:41:02;;;;;;;7.37;6.70;;;12.00;99.90;;;;;;5113438;28;20452;-61
2023/10/26 09:43:29;;;;;;;7.67;6.80;;;12.10;99.90;;;;;;5113065;28;20526;-62
2023/10/26 09:45:56;;;;;;;7.17;6.50;;;12.10;99.90;;;;;;5112941;28;20979;-60
2023/10/26 09:48:23;;;;;;;8.17;7.43;;;12.10;99.90;;;;;;5113330;28;20528;-60
2023/10/26 09:50:49;;;;;;;7.87;7.13;;;12.20;99.90;;;;;;5113279;28;21002;-60
2023/10/26 09:53:18;;;;;;;7.73;6.93;;;12.20;99.90;;;;;;5113211;28;20473;-61
2023/10/26 09:55:48;;;;;;;5.57;5.17;;;12.20;99.90;;;;;;5113087;28;20910;-60
2023/10/26 09:58:16;;;;;;;6.87;6.30;;;12.30;99.90;;;;;;5113058;28;20450;-60
2023/10/26 10:00:43;;;;;;;7.30;6.73;;;12.30;99.90;;;;;;5113217;28;20442;-63
2023/10/26 10:03:10;;;;;;;6.83;5.63;;;12.40;99.90;;;;;;5113335;28;20552;-62
2023/10/26 10:05:38;;;;;;;6.10;5.60;;;12.40;99.90;;;;;;5112970;28;20868;-63
2023/10/26 10:08:05;;;;;;;6.20;5.70;;;12.40;99.90;;;;;;5113100;28;20450;-63
2023/10/26 10:10:31;;;;;;;6.27;5.67;;;12.40;99.90;;;;;;5112973;28;20449;-61
2023/10/26 10:13:00;;;;;;;5.70;5.30;;;12.30;99.90;;;;;;5113015;28;20574;-60
2023/10/26 10:15:34;;;;;;;9.53;5.67;;;12.30;99.90;;;;;;5112899;28;20533;-63
2023/10/26 10:18:04;;;;;;;6.03;5.53;;;12.30;99.90;;;;;;5113179;28;20445;-62
2023/10/26 10:20:32;;;;;;;5.13;4.63;;;12.40;99.90;;;;;;5113238;28;20533;-60
2023/10/26 10:23:01;;;;;;;5.73;5.23;;;12.50;99.90;;;;;;5112955;28;20442;-62
2023/10/26 10:26:01;;;;;;;5.63;5.13;;;12.50;99.90;;;;;;5112598;28;20537;-58
2023/10/26 10:28:48;;;;;;;6.40;5.80;;;12.50;99.90;;;;;;5112997;28;20442;-58
2023/10/26 10:31:40;;;;;;;7.63;6.93;;;12.40;99.90;;;;;;5112792;28;20446;-57
2023/10/26 10:34:09;;;;;;;5.90;5.50;;;12.40;99.90;;;;;;5112708;28;20528;-61
2023/10/26 10:37:12;;;;;;;5.93;5.40;;;12.50;99.90;;;;;;5112872;28;20445;-62
2023/10/26 10:40:01;;;;;;;6.13;5.63;;;12.60;99.90;;;;;;5030099;28;20437;-59
2023/10/26 10:42:28;;;;;;;4.80;4.50;;;12.60;99.90;;;;;;5029896;28;20532;-60
2023/10/26 10:44:57;;;;;;;6.20;5.70;;;12.60;99.90;;;;;;5079696;28;20545;-62
2023/10/26 10:47:28;;;;;;;6.70;5.27;;;12.60;99.90;;;;;;5112401;28;20879;-60
2023/10/26 10:50:14;;;;;;;9.30;5.80;;;12.60;99.90;;;;;;5116475;28;20537;-61
2023/10/26 10:52:41;;;;;;;6.20;5.60;;;12.60;99.90;;;;;;5116145;28;20528;-61
2023/10/26 10:55:08;;;;;;;5.63;5.17;;;12.60;99.90;;;;;;5116514;28;20446;-62
2023/10/26 10:57:35;;;;;;;5.90;5.10;;;12.50;99.90;;;;;;5116545;28;20470;-64
2023/10/26 11:00:03;;;;;;;5.10;4.53;;;12.50;99.90;;;;;;5116061;28;20532;-61
2023/10/26 11:02:30;;;;;;;4.97;4.57;;;12.60;99.90;;;;;;5116028;28;20520;-60
2023/10/26 11:04:58;;;;;;;4.90;4.50;;;12.50;99.90;;;;;;5115863;28;20867;-60
2023/10/26 11:07:26;;;;;;;5.90;5.37;;;12.60;99.90;;;;;;5115969;28;20630;-59
2023/10/26 11:09:55;;;;;;;6.20;5.63;;;12.70;99.90;;;;;;5116174;28;20445;-62
2023/10/26 11:12:22;;;;;;;5.60;5.17;;;12.60;99.90;;;;;;5115918;28;20445;-62
2023/10/26 11:14:50;;;;;;;5.00;4.50;;;12.70;99.90;;;;;;5115904;28;20529;-61
2023/10/26 11:17:18;;;;;;;5.90;5.40;;;12.70;99.90;;;;;;5115957;28;20441;-61
2023/10/26 11:19:45;;;;;;;4.50;4.20;;;12.80;99.90;;;;;;5115759;28;20471;-62
2023/10/26 11:22:14;;;;;;;4.33;4.03;;;12.80;99.90;;;;;;5115617;28;20817;-62
2023/10/26 11:24:41;;;;;;;4.77;4.27;;;12.80;99.90;;;;;;5115563;28;20946;-61
2023/10/26 11:27:09;;;;;;;5.00;4.50;;;12.80;99.90;;;;;;5111921;28;20450;-61
2023/10/26 11:29:35;;;;;;;4.57;4.27;;;12.80;99.90;;;;;;5115068;28;20441;-61
2023/10/26 11:32:02;;;;;;;3.77;3.57;;;12.80;99.90;;;;;;5115362;28;20646;-60
2023/10/26 11:34:30;;;;;;;5.40;3.80;;;12.90;99.90;;;;;;5115219;28;20881;-61
2023/10/26 11:36:57;;;;;;;5.00;4.60;;;12.90;99.90;;;;;;5114858;28;20528;-61
2023/10/26 11:39:25;;;;;;;5.33;4.93;;;12.90;99.90;;;;;;5115198;28;20438;-62
2023/10/26 11:41:55;;;;;;;4.83;4.53;;;12.90;99.90;;;;;;5115130;28;20533;-61
2023/10/26 11:44:26;;;;;;;4.20;3.90;;;12.90;99.90;;;;;;5114766;28;20530;-62
2023/10/26 11:46:59;;;;;;;5.40;5.03;;;12.90;99.90;;;;;;5114459;28;20571;-62
2023/10/26 11:49:38;;;;;;;4.83;4.47;;;12.90;99.90;;;;;;5114915;28;20859;-60
2023/10/26 11:52:06;;;;;;;5.43;4.93;;;12.90;99.90;;;;;;5114711;28;20441;-63
2023/10/26 11:54:32;;;;;;;5.90;5.23;;;12.90;99.90;;;;;;5114547;28;20983;-61
2023/10/26 11:56:59;;;;;;;5.70;5.20;;;12.90;99.90;;;;;;5114585;28;20442;-62
2023/10/26 11:59:25;;;;;;;6.00;5.40;;;12.90;99.90;;;;;;5113458;28;20438;-62
2023/10/26 12:01:52;;;;;;;5.33;4.93;;;12.80;99.90;;;;;;5114449;28;20452;-63
2023/10/26 12:04:18;;;;;;;5.10;4.70;;;12.80;99.90;;;;;;5114590;28;20521;-63
2023/10/26 12:06:46;;;;;;;7.07;6.20;;;12.80;99.90;;;;;;5114433;28;20477;-61
2023/10/26 12:09:13;;;;;;;5.10;4.50;;;12.90;99.90;;;;;;5114756;28;20438;-61
2023/10/26 12:11:41;;;;;;;5.60;5.10;;;12.80;99.90;;;;;;5114538;28;20446;-61
2023/10/26 12:14:08;;;;;;;6.90;5.83;;;12.80;99.90;;;;;;5110107;28;20809;-63
2023/10/26 12:16:34;;;;;;;5.60;5.20;;;12.80;99.90;;;;;;5114028;28;20525;-62
2023/10/26 12:19:01;;;;;;;8.40;5.60;;;12.80;99.90;;;;;;5113428;28;20441;-61
2023/10/26 12:21:27;;;;;;;6.57;5.97;;;12.80;99.90;;;;;;5113649;28;20445;-64
2023/10/26 12:23:56;;;;;;;6.77;6.17;;;12.80;99.90;;;;;;5113514;28;20879;-65
2023/10/26 12:26:23;;;;;;;7.00;6.40;;;12.60;99.90;;;;;;5111068;28;20473;-61
2023/10/26 12:28:49;;;;;;;6.87;6.27;;;12.60;99.90;;;;;;5113268;28;20468;-62
2023/10/26 12:31:15;;;;;;;6.03;5.43;;;12.60;99.90;;;;;;5113718;28;20448;-64
2023/10/26 12:33:42;;;;;;;6.73;6.20;;;12.60;99.90;;;;;;5113622;28;20625;-62
2023/10/26 12:36:08;;;;;;;6.63;6.13;;;12.60;99.90;;;;;;5114119;28;20533;-62
2023/10/26 12:38:35;;;;;;;7.20;6.50;;;12.70;99.90;;;;;;5114144;28;20442;-62